createdAt,value
2023-05-05T00:00:22.035Z,98951.13
2023-05-05T00:03:11.353Z,98946.16
2023-05-05T00:05:40.654Z,98950.09
2023-05-05T00:08:09.645Z,98954.00
2023-05-05T00:10:40.355Z,98952.63
2023-05-05T00:13:10.424Z,98958.25
2023-05-05T00:15:41.551Z,98965.94
2023-05-05T00:18:13.268Z,98960.34
2023-05-05T00:20:41.006Z,98961.75
2023-05-05T00:23:08.168Z,98959.59
2023-05-05T00:25:35.756Z,98963.41
2023-05-05T00:28:02.771Z,98963.56
2023-05-05T00:30:30.236Z,98957.56
2023-05-05T00:32:57.432Z,98953.38
2023-05-05T00:35:24.928Z,98963.19
2023-05-05T00:37:52.019Z,98960.63
2023-05-05T00:40:19.348Z,98957.16
2023-05-05T00:42:52.756Z,98951.03
2023-05-05T00:45:21.313Z,98956.47
2023-05-05T00:48:02.573Z,98950.41
2023-05-05T00:50:32.536Z,98961.00
2023-05-05T00:53:06.576Z,98958.19
2023-05-05T00:55:37.737Z,98955.56
2023-05-05T00:58:07.431Z,98957.28
2023-05-05T01:00:36.105Z,98955.63
2023-05-05T01:03:06.941Z,98950.41
2023-05-05T01:05:57.528Z,98955.09
2023-05-05T01:08:39.012Z,98960.47
2023-05-05T01:11:28.087Z,98949.84
2023-05-05T01:14:20.276Z,98952.44
2023-05-05T01:17:09.578Z,98953.19
2023-05-05T01:19:57.002Z,98950.63
2023-05-05T01:22:42.568Z,98951.66
2023-05-05T01:25:27.102Z,98958.84
2023-05-05T01:29:04.289Z,98951.97
2023-05-05T01:31:55.084Z,98953.06
2023-05-05T01:34:37.052Z,98956.63
2023-05-05T01:37:16.712Z,98962.00
2023-05-05T01:39:50.094Z,98960.53
2023-05-05T01:42:20.725Z,98954.47
2023-05-05T01:44:52.224Z,98957.16
2023-05-05T01:47:23.649Z,98950.91
2023-05-05T01:49:52.467Z,98951.84
2023-05-05T01:52:21.856Z,98958.94
2023-05-05T01:54:52.650Z,98955.41
2023-05-05T01:57:23.194Z,98947.69
2023-05-05T01:59:53.273Z,98947.00
2023-05-05T02:02:23.325Z,98948.09
2023-05-05T02:04:54.685Z,98949.00
2023-05-05T02:07:23.746Z,98952.28
2023-05-05T02:09:53.373Z,98955.63
2023-05-05T02:12:22.689Z,98953.25
2023-05-05T02:14:52.332Z,98951.59
2023-05-05T02:17:23.267Z,98950.66
2023-05-05T02:19:53.204Z,98948.16
2023-05-05T02:22:20.810Z,98943.97
2023-05-05T02:24:49.219Z,98941.53
2023-05-05T02:27:20.967Z,98937.31
2023-05-05T02:29:54.352Z,98940.19
2023-05-05T02:32:33.744Z,98945.41
2023-05-05T02:35:18.223Z,98942.66
2023-05-05T02:37:51.651Z,98946.19
2023-05-05T02:40:26.544Z,98951.78
2023-05-05T02:42:57.453Z,98946.81
2023-05-05T02:45:27.837Z,98947.00
2023-05-05T02:47:57.468Z,98937.47
2023-05-05T02:50:24.832Z,98935.09
2023-05-05T02:52:51.905Z,98947.69
2023-05-05T02:55:19.802Z,98941.81
2023-05-05T02:58:11.699Z,98941.16
2023-05-05T03:00:53.698Z,98935.13
2023-05-05T03:03:46.421Z,98941.31
2023-05-05T03:06:21.471Z,98926.34
2023-05-05T03:09:16.124Z,98933.50
2023-05-05T03:12:20.464Z,98931.06
2023-05-05T03:14:54.408Z,98932.09
2023-05-05T03:17:24.689Z,98926.00
2023-05-05T03:19:52.753Z,98920.00
2023-05-05T03:22:20.197Z,98923.66
2023-05-05T03:24:54.845Z,98925.44
2023-05-05T03:27:25.922Z,98924.56
2023-05-05T03:29:56.130Z,98922.88
2023-05-05T03:32:26.609Z,98922.06
2023-05-05T03:34:56.692Z,98920.50
2023-05-05T03:37:26.451Z,98925.06
2023-05-05T03:39:54.824Z,98929.66
2023-05-05T03:42:24.428Z,98928.69
2023-05-05T03:44:56.834Z,98924.13
2023-05-05T03:47:26.462Z,98927.41
2023-05-05T03:49:56.291Z,98928.31
2023-05-05T03:52:25.801Z,98931.00
2023-05-05T03:54:55.145Z,98932.81
2023-05-05T03:57:24.983Z,98932.81
2023-05-05T03:59:54.558Z,98925.06
2023-05-05T04:02:23.753Z,98928.63
2023-05-05T04:04:53.176Z,98933.00
2023-05-05T04:07:24.884Z,98930.88
2023-05-05T04:09:57.508Z,98931.59
2023-05-05T04:12:28.187Z,98933.44
2023-05-05T04:14:58.131Z,98931.06
2023-05-05T04:17:27.419Z,98937.44
2023-05-05T04:19:55.317Z,98937.59
2023-05-05T04:22:26.966Z,98940.22
2023-05-05T04:24:57.215Z,98936.63
2023-05-05T04:27:30.039Z,98939.28
2023-05-05T04:29:59.199Z,98931.34
2023-05-05T04:32:29.061Z,98936.44
2023-05-05T04:34:57.756Z,98943.59
2023-05-05T04:37:28.960Z,98937.16
2023-05-05T04:39:57.369Z,98940.63
2023-05-05T04:42:24.879Z,98942.50
2023-05-05T04:44:54.811Z,98948.56
2023-05-05T04:47:24.390Z,98944.88
2023-05-05T04:49:56.509Z,98950.94
2023-05-05T04:52:24.459Z,98951.78
2023-05-05T04:54:51.950Z,98955.97
2023-05-05T04:57:20.122Z,98955.19
2023-05-05T04:59:47.299Z,98957.38
2023-05-05T05:02:14.850Z,98968.63
2023-05-05T05:04:42.113Z,98962.34
2023-05-05T05:07:09.628Z,98967.56
2023-05-05T05:09:38.065Z,98965.56
2023-05-05T05:12:07.408Z,98963.31
2023-05-05T05:14:40.612Z,98976.25
2023-05-05T05:17:08.122Z,98972.53
2023-05-05T05:19:37.553Z,98973.16
2023-05-05T05:22:07.959Z,98979.66
2023-05-05T05:24:36.899Z,98980.22
2023-05-05T05:27:09.848Z,98979.16
2023-05-05T05:29:38.045Z,98980.56
2023-05-05T05:32:05.783Z,98981.72
2023-05-05T05:34:33.069Z,98987.34
2023-05-05T05:37:00.581Z,98984.38
2023-05-05T05:39:27.647Z,98981.44
2023-05-05T05:41:55.227Z,98982.13
2023-05-05T05:44:22.749Z,98982.13
2023-05-05T05:46:50.008Z,98976.59
2023-05-05T05:49:17.328Z,98984.63
2023-05-05T05:51:44.738Z,98993.66
2023-05-05T05:54:12.065Z,98989.75
2023-05-05T05:56:40.286Z,98995.00
2023-05-05T05:59:10.752Z,98989.63
2023-05-05T06:01:40.463Z,99000.28
2023-05-05T06:04:08.136Z,99007.22
2023-05-05T06:06:35.658Z,99001.59
2023-05-05T06:09:03.613Z,99004.19
2023-05-05T06:11:31.077Z,99008.56
2023-05-05T06:13:58.729Z,99004.03
2023-05-05T06:16:26.214Z,99011.81
2023-05-05T06:18:53.470Z,99007.28
2023-05-05T06:21:21.006Z,99007.16
2023-05-05T06:23:48.171Z,99004.00
2023-05-05T06:26:15.829Z,99001.88
2023-05-05T06:28:42.922Z,98994.44
2023-05-05T06:31:12.961Z,98989.84
2023-05-05T06:33:40.056Z,98991.06
2023-05-05T06:36:07.806Z,98985.34
2023-05-05T06:38:35.131Z,98984.63
2023-05-05T06:41:02.748Z,98988.41
2023-05-05T06:43:29.880Z,98982.47
2023-05-05T06:45:57.212Z,98984.88
2023-05-05T06:48:24.499Z,98991.41
2023-05-05T06:50:52.097Z,98990.69
2023-05-05T06:53:19.167Z,98992.09
2023-05-05T06:55:48.189Z,98991.44
2023-05-05T06:58:15.300Z,98984.84
2023-05-05T07:00:42.837Z,98991.13
2023-05-05T07:03:10.095Z,98986.09
2023-05-05T07:05:37.691Z,98986.72
2023-05-05T07:08:05.519Z,98994.03
2023-05-05T07:10:33.640Z,98983.75
2023-05-05T07:13:01.070Z,98981.50
2023-05-05T07:15:29.807Z,98990.59
2023-05-05T07:17:58.248Z,98983.44
2023-05-05T07:20:26.194Z,98984.41
2023-05-05T07:22:53.306Z,98974.34
2023-05-05T07:25:21.953Z,98973.44
2023-05-05T07:27:49.186Z,98975.19
2023-05-05T07:30:18.660Z,98965.22
2023-05-05T07:32:46.162Z,98957.72
2023-05-05T07:35:13.852Z,98955.13
2023-05-05T07:37:41.020Z,98952.63
2023-05-05T07:40:09.361Z,98949.03
2023-05-05T07:42:36.667Z,98952.44
2023-05-05T07:45:05.435Z,98955.00
2023-05-05T07:47:33.304Z,98958.91
2023-05-05T07:50:01.400Z,98958.03
2023-05-05T07:52:44.207Z,98959.16
2023-05-05T07:55:15.742Z,98966.44
2023-05-05T07:57:43.007Z,98966.69
2023-05-05T08:00:11.604Z,98964.28
2023-05-05T08:02:39.249Z,98960.44
2023-05-05T08:05:07.595Z,98965.81
2023-05-05T08:07:36.652Z,98965.19
2023-05-05T08:10:04.365Z,98960.00
2023-05-05T08:12:31.592Z,98970.03
2023-05-05T08:14:59.232Z,98962.47
2023-05-05T08:17:27.154Z,98963.09
2023-05-05T08:19:54.723Z,98966.09
2023-05-05T08:22:22.721Z,98967.22
2023-05-05T08:24:50.067Z,98964.78
2023-05-05T08:27:17.260Z,98957.94
2023-05-05T08:29:44.694Z,98953.66
2023-05-05T08:32:11.813Z,98953.25
2023-05-05T08:34:39.297Z,98951.09
2023-05-05T08:37:07.166Z,98948.84
2023-05-05T08:39:34.999Z,98944.03
2023-05-05T08:42:03.549Z,98944.44
2023-05-05T08:44:31.126Z,98951.91
2023-05-05T08:47:02.054Z,98947.94
2023-05-05T08:49:40.520Z,98951.03
2023-05-05T08:52:11.855Z,98950.28
2023-05-05T08:54:50.353Z,98955.91
2023-05-05T08:57:28.561Z,98951.94
2023-05-05T08:59:58.935Z,98946.88
2023-05-05T09:02:30.060Z,98941.50
2023-05-05T09:04:57.785Z,98942.13
2023-05-05T09:07:25.571Z,98945.06
2023-05-05T09:09:53.529Z,98942.91
2023-05-05T09:12:22.214Z,98948.41
2023-05-05T09:14:49.589Z,98944.53
2023-05-05T09:17:26.921Z,98935.91
2023-05-05T09:20:07.458Z,98938.88
2023-05-05T09:22:41.447Z,98936.69
2023-05-05T09:25:17.907Z,98928.97
2023-05-05T09:27:48.422Z,98924.72
2023-05-05T09:30:23.463Z,98919.97
2023-05-05T09:32:55.855Z,98924.38
2023-05-05T09:35:23.729Z,98915.97
2023-05-05T09:37:51.155Z,98920.84
2023-05-05T09:40:20.536Z,98918.53
2023-05-05T09:42:48.552Z,98915.50
2023-05-05T09:45:19.298Z,98909.06
2023-05-05T09:47:48.141Z,98919.91
2023-05-05T09:50:19.021Z,98912.09
2023-05-05T09:53:01.684Z,98910.25
2023-05-05T09:55:33.539Z,98911.63
2023-05-05T09:58:20.631Z,98903.56
2023-05-05T10:00:48.155Z,98903.56
2023-05-05T10:03:16.138Z,98906.19
2023-05-05T10:06:09.942Z,98903.72
2023-05-05T10:08:37.116Z,98905.44
2023-05-05T10:11:06.930Z,98898.69
2023-05-05T10:13:42.095Z,98902.81
2023-05-05T10:16:13.252Z,98892.84
2023-05-05T10:18:46.720Z,98895.28
2023-05-05T10:21:21.691Z,98891.38
2023-05-05T10:23:58.623Z,98892.84
2023-05-05T10:26:28.413Z,98890.72
2023-05-05T10:28:56.966Z,98886.06
2023-05-05T10:31:48.895Z,98889.38
2023-05-05T10:34:37.840Z,98888.56
2023-05-05T10:37:07.259Z,98885.25
2023-05-05T10:39:37.662Z,98879.06
2023-05-05T10:42:05.336Z,98881.13
2023-05-05T10:44:33.389Z,98871.94
2023-05-05T10:47:02.740Z,98865.91
2023-05-05T10:50:02.576Z,98867.94
2023-05-05T10:53:15.472Z,98864.31
2023-05-05T10:55:58.806Z,98854.72
2023-05-05T10:58:59.642Z,98853.31
2023-05-05T11:01:36.519Z,98854.16
2023-05-05T11:04:24.025Z,98850.19
2023-05-05T11:10:06.729Z,98849.34
2023-05-05T11:13:00.155Z,98832.31
2023-05-05T11:15:34.471Z,98839.44
2023-05-05T11:18:05.021Z,98834.25
2023-05-05T11:20:36.840Z,98838.97
2023-05-05T11:23:21.989Z,98829.97
2023-05-05T11:25:51.429Z,98832.81
2023-05-05T11:28:25.668Z,98828.75
2023-05-05T11:30:56.934Z,98834.44
2023-05-05T11:33:38.688Z,98826.63
2023-05-05T11:36:14.688Z,98828.16
2023-05-05T11:39:22.208Z,98821.56
2023-05-05T11:42:23.592Z,98818.59
2023-05-05T11:44:51.321Z,98816.16
2023-05-05T11:47:18.577Z,98811.78
2023-05-05T11:49:46.941Z,98811.66
2023-05-05T11:52:15.141Z,98819.03
2023-05-05T11:54:47.949Z,98809.16
2023-05-05T11:57:20.222Z,98810.97
2023-05-05T11:59:57.023Z,98809.72
2023-05-05T12:02:26.642Z,98804.34
2023-05-05T12:04:54.512Z,98799.94
2023-05-05T12:07:25.011Z,98803.34
2023-05-05T12:09:52.966Z,98797.25
2023-05-05T12:12:21.143Z,98796.69
2023-05-05T12:14:53.037Z,98801.91
2023-05-05T12:17:23.035Z,98792.69
2023-05-05T12:19:54.162Z,98799.78
2023-05-05T12:22:26.732Z,98795.66
2023-05-05T12:24:58.941Z,98795.09
2023-05-05T12:27:28.181Z,98785.19
2023-05-05T12:29:57.326Z,98778.94
2023-05-05T12:32:28.320Z,98784.31
2023-05-05T12:34:59.388Z,98771.69
2023-05-05T12:37:27.743Z,98776.91
2023-05-05T12:39:57.373Z,98767.69
2023-05-05T12:42:24.624Z,98770.25
2023-05-05T12:44:52.222Z,98764.69
2023-05-05T12:47:45.943Z,98768.31
2023-05-05T12:50:13.032Z,98766.22
2023-05-05T12:52:45.324Z,98767.63
2023-05-05T12:55:13.035Z,98762.94
2023-05-05T12:58:04.683Z,98753.16
2023-05-05T13:00:31.975Z,98747.03
2023-05-05T13:02:59.310Z,98748.84
2023-05-05T13:05:33.969Z,98747.56
2023-05-05T13:08:01.143Z,98743.56
2023-05-05T13:10:31.401Z,98741.34
2023-05-05T13:12:58.785Z,98736.50
2023-05-05T13:15:26.188Z,98736.66
2023-05-05T13:18:01.339Z,98737.03
2023-05-05T13:20:28.598Z,98738.06
2023-05-05T13:22:55.879Z,98736.03
2023-05-05T13:25:22.910Z,98730.06
2023-05-05T13:27:50.335Z,98724.66
2023-05-05T13:30:17.348Z,98729.31
2023-05-05T13:32:44.634Z,98723.97
2023-05-05T13:35:13.851Z,98715.97
2023-05-05T13:37:44.322Z,98712.28
2023-05-05T13:40:13.384Z,98718.00
2023-05-05T13:42:40.638Z,98720.44
2023-05-05T13:45:08.428Z,98711.88
2023-05-05T13:47:36.224Z,98697.03
2023-05-05T13:50:03.488Z,98702.75
2023-05-05T13:52:32.128Z,98700.34
2023-05-05T13:55:00.922Z,98694.28
2023-05-05T13:57:28.298Z,98695.13
2023-05-05T13:59:55.276Z,98696.50
2023-05-05T14:02:22.537Z,98689.25
2023-05-05T14:04:49.537Z,98690.34
2023-05-05T14:07:16.911Z,98686.06
2023-05-05T14:09:43.842Z,98688.59
2023-05-05T14:12:11.032Z,98678.66
2023-05-05T14:14:38.091Z,98675.72
2023-05-05T14:17:05.400Z,98673.81
2023-05-05T14:19:32.487Z,98673.00
2023-05-05T14:21:59.652Z,98669.94
2023-05-05T14:24:27.255Z,98659.94
2023-05-05T14:26:54.456Z,98659.69
2023-05-05T14:29:21.389Z,98661.53
2023-05-05T14:31:48.548Z,98659.78
2023-05-05T14:34:15.560Z,98652.75
2023-05-05T14:36:42.761Z,98653.78
2023-05-05T14:39:09.709Z,98652.66
2023-05-05T14:41:36.874Z,98651.72
2023-05-05T14:44:03.972Z,98648.53
2023-05-05T14:46:31.876Z,98657.00
2023-05-05T14:48:59.080Z,98652.78
2023-05-05T14:51:26.336Z,98654.63
2023-05-05T14:53:53.336Z,98651.63
2023-05-05T14:56:22.840Z,98657.16
2023-05-05T14:58:50.171Z,98659.66
2023-05-05T15:01:17.509Z,98653.34
2023-05-05T15:03:44.599Z,98658.16
2023-05-05T15:06:12.261Z,98656.78
2023-05-05T15:08:39.244Z,98656.13
2023-05-05T15:11:06.974Z,98658.53
2023-05-05T15:13:33.947Z,98661.91
2023-05-05T15:16:01.447Z,98665.63
2023-05-05T15:18:28.470Z,98659.78
2023-05-05T15:20:55.725Z,98653.03
2023-05-05T15:23:22.690Z,98647.03
2023-05-05T15:25:50.020Z,98639.31
2023-05-05T15:28:17.497Z,98635.75
2023-05-05T15:30:45.297Z,98640.97
2023-05-05T15:33:12.203Z,98639.69
2023-05-05T15:35:39.396Z,98636.16
2023-05-05T15:38:06.377Z,98628.78
2023-05-05T15:40:33.833Z,98640.09
2023-05-05T15:43:00.862Z,98635.16
2023-05-05T15:45:28.137Z,98629.16
2023-05-05T15:47:55.034Z,98620.50
2023-05-05T15:50:23.395Z,98624.66
2023-05-05T15:52:50.433Z,98622.66
2023-05-05T15:55:17.796Z,98622.81
2023-05-05T15:57:44.757Z,98617.38
2023-05-05T16:00:13.080Z,98620.41
2023-05-05T16:02:40.209Z,98611.97
2023-05-05T16:05:08.298Z,98610.47
2023-05-05T16:07:35.519Z,98608.28
2023-05-05T16:10:03.750Z,98606.91
2023-05-05T16:12:31.131Z,98604.38
2023-05-05T16:14:58.771Z,98599.25
2023-05-05T16:17:25.826Z,98596.47
2023-05-05T16:19:53.134Z,98596.91
2023-05-05T16:22:21.070Z,98597.88
2023-05-05T16:24:48.375Z,98591.16
2023-05-05T16:27:15.484Z,98596.09
2023-05-05T16:29:42.718Z,98581.94
2023-05-05T16:32:09.640Z,98585.25
2023-05-05T16:34:36.826Z,98591.59
2023-05-05T16:37:03.884Z,98582.13
2023-05-05T16:39:32.982Z,98585.63
2023-05-05T16:41:59.990Z,98583.16
2023-05-05T16:44:27.317Z,98589.47
2023-05-05T16:46:54.268Z,98587.25
2023-05-05T16:49:24.128Z,98583.31
2023-05-05T16:51:53.507Z,98581.63
2023-05-05T16:54:20.773Z,98575.88
2023-05-05T16:56:47.686Z,98574.31
2023-05-05T16:59:18.347Z,98570.72
2023-05-05T17:01:45.406Z,98570.47
2023-05-05T17:04:12.532Z,98574.66
2023-05-05T17:06:39.528Z,98569.91
2023-05-05T17:09:06.768Z,98577.97
2023-05-05T17:11:33.753Z,98565.28
2023-05-05T17:14:01.667Z,98565.16
2023-05-05T17:16:28.783Z,98563.06
2023-05-05T17:18:55.985Z,98568.59
2023-05-05T17:21:23.528Z,98570.59
2023-05-05T17:23:50.977Z,98566.19
2023-05-05T17:26:17.982Z,98572.06
2023-05-05T17:28:45.242Z,98573.34
2023-05-05T17:31:12.651Z,98564.88
2023-05-05T17:33:40.056Z,98570.84
2023-05-05T17:36:07.380Z,98565.94
2023-05-05T17:38:34.760Z,98569.38
2023-05-05T17:41:02.122Z,98568.81
2023-05-05T17:43:29.359Z,98578.34
2023-05-05T17:45:56.328Z,98570.84
2023-05-05T17:48:23.675Z,98573.28
2023-05-05T17:50:50.647Z,98567.78
2023-05-05T17:53:17.885Z,98572.75
2023-05-05T17:55:46.156Z,98559.03
2023-05-05T17:58:13.824Z,98557.81
2023-05-05T18:00:40.969Z,98560.91
2023-05-05T18:03:08.323Z,98566.03
2023-05-05T18:05:35.778Z,98563.94
2023-05-05T18:08:03.282Z,98563.69
2023-05-05T18:10:30.421Z,98565.97
2023-05-05T18:12:57.875Z,98564.81
2023-05-05T18:15:25.205Z,98567.81
2023-05-05T18:17:53.849Z,98569.34
2023-05-05T18:20:20.918Z,98569.81
2023-05-05T18:22:49.200Z,98569.50
2023-05-05T18:25:16.182Z,98567.25
2023-05-05T18:27:44.498Z,98575.72
2023-05-05T18:30:12.402Z,98570.91
2023-05-05T18:32:39.565Z,98572.03
2023-05-05T18:35:07.376Z,98574.31
2023-05-05T18:37:35.025Z,98580.78
2023-05-05T18:40:01.947Z,98579.41
2023-05-05T18:42:29.275Z,98575.31
2023-05-05T18:44:56.240Z,98578.13
2023-05-05T18:47:23.681Z,98581.22
2023-05-05T18:49:50.675Z,98580.53
2023-05-05T18:52:17.970Z,98582.66
2023-05-05T18:54:44.914Z,98583.75
2023-05-05T18:57:12.282Z,98573.28
2023-05-05T18:59:39.294Z,98582.63
2023-05-05T19:02:07.963Z,98585.56
2023-05-05T19:04:38.739Z,98582.19
2023-05-05T19:07:06.034Z,98585.00
2023-05-05T19:09:33.047Z,98574.13
2023-05-05T19:12:00.194Z,98581.59
2023-05-05T19:14:27.276Z,98576.59
2023-05-05T19:16:55.949Z,98572.38
2023-05-05T19:19:23.196Z,98567.16
2023-05-05T19:21:50.734Z,98577.00
2023-05-05T19:24:17.726Z,98566.41
2023-05-05T19:26:44.969Z,98565.13
2023-05-05T19:29:13.010Z,98560.78
2023-05-05T19:31:40.323Z,98567.97
2023-05-05T19:34:07.547Z,98559.47
2023-05-05T19:36:34.858Z,98555.50
2023-05-05T19:39:04.347Z,98561.84
2023-05-05T19:41:31.774Z,98561.00
2023-05-05T19:43:58.792Z,98552.97
2023-05-05T19:46:26.721Z,98552.97
2023-05-05T19:48:53.904Z,98556.75
2023-05-05T19:51:21.237Z,98549.84
2023-05-05T19:53:48.398Z,98548.13
2023-05-05T19:56:16.996Z,98540.22
2023-05-05T19:58:57.652Z,98544.19
2023-05-05T20:01:25.982Z,98541.91
2023-05-05T20:03:54.944Z,98539.34
2023-05-05T20:06:23.008Z,98538.78
2023-05-05T20:08:49.990Z,98526.06
2023-05-05T20:11:17.837Z,98513.09
2023-05-05T20:13:44.912Z,98484.03
2023-05-05T20:16:12.337Z,98467.38
2023-05-05T20:18:40.244Z,98471.41
2023-05-05T20:21:07.428Z,98489.59
2023-05-05T20:23:34.342Z,98509.09
2023-05-05T20:26:01.763Z,98523.75
2023-05-05T20:28:31.485Z,98529.91
2023-05-05T20:30:58.677Z,98525.03
2023-05-05T20:33:25.903Z,98525.56
2023-05-05T20:35:53.081Z,98512.72
2023-05-05T20:38:20.080Z,98525.13
2023-05-05T20:40:47.320Z,98530.59
2023-05-05T20:43:14.327Z,98540.47
2023-05-05T20:45:41.533Z,98538.31
2023-05-05T20:48:11.186Z,98538.16
2023-05-05T20:50:39.279Z,98539.13
2023-05-05T20:53:11.787Z,98540.09
2023-05-05T20:55:38.977Z,98541.09
2023-05-05T20:58:09.198Z,98545.31
2023-05-05T21:00:36.583Z,98547.53
2023-05-05T21:03:04.962Z,98547.09
2023-05-05T21:05:32.077Z,98546.75
2023-05-05T21:08:00.881Z,98547.00
2023-05-05T21:10:33.110Z,98543.38
2023-05-05T21:13:02.677Z,98544.78
2023-05-05T21:15:29.807Z,98543.56
2023-05-05T21:17:57.365Z,98537.50
2023-05-05T21:20:24.472Z,98534.94
2023-05-05T21:22:51.709Z,98536.75
2023-05-05T21:25:21.680Z,98541.94
2023-05-05T21:27:50.095Z,98534.41
2023-05-05T21:30:17.619Z,98536.38
2023-05-05T21:32:45.671Z,98524.97
2023-05-05T21:35:13.741Z,98524.09
2023-05-05T21:37:42.476Z,98522.28
2023-05-05T21:40:13.504Z,98514.38
2023-05-05T21:42:42.709Z,98519.84
2023-05-05T21:45:12.464Z,98517.31
2023-05-05T21:47:39.868Z,98514.03
2023-05-05T21:50:07.773Z,98514.19
2023-05-05T21:52:35.258Z,98508.22
2023-05-05T21:55:02.794Z,98518.06
2023-05-05T21:57:29.954Z,98510.16
2023-05-05T21:59:56.869Z,98509.44
2023-05-05T22:02:24.287Z,98502.41
2023-05-05T22:04:51.980Z,98491.97
2023-05-05T22:07:19.594Z,98495.75
2023-05-05T22:09:46.704Z,98490.47
2023-05-05T22:12:13.982Z,98485.25
2023-05-05T22:14:40.993Z,98485.41
2023-05-05T22:17:08.784Z,98488.81
2023-05-05T22:19:36.058Z,98482.56
2023-05-05T22:22:03.619Z,98484.19
2023-05-05T22:24:30.564Z,98485.91
2023-05-05T22:26:58.420Z,98484.06
2023-05-05T22:29:25.677Z,98484.91
2023-05-05T22:31:53.262Z,98483.22
2023-05-05T22:34:21.956Z,98477.00
2023-05-05T22:36:49.927Z,98481.53
2023-05-05T22:39:18.597Z,98474.44
2023-05-05T22:41:47.147Z,98477.09
2023-05-05T22:44:14.234Z,98467.53
2023-05-05T22:46:42.432Z,98479.06
2023-05-05T22:49:09.568Z,98482.72
2023-05-05T22:51:36.734Z,98475.81
2023-05-05T22:54:04.104Z,98475.94
2023-05-05T22:56:31.280Z,98467.44
2023-05-05T22:58:58.249Z,98468.41
2023-05-05T23:01:26.209Z,98475.97
2023-05-05T23:03:53.435Z,98481.47
2023-05-05T23:06:20.853Z,98473.56
2023-05-05T23:08:49.278Z,98474.66
2023-05-05T23:11:16.917Z,98472.13
2023-05-05T23:13:43.967Z,98471.28
2023-05-05T23:16:11.607Z,98472.25
2023-05-05T23:18:38.866Z,98473.22
2023-05-05T23:21:06.138Z,98467.88
2023-05-05T23:23:33.656Z,98464.81
2023-05-05T23:26:01.475Z,98466.50
2023-05-05T23:28:28.428Z,98462.13
2023-05-05T23:30:55.912Z,98468.47
2023-05-05T23:33:23.075Z,98461.53
2023-05-05T23:35:50.367Z,98461.53
2023-05-05T23:38:17.653Z,98455.22
2023-05-05T23:40:44.850Z,98454.38
2023-05-05T23:43:12.084Z,98464.09
2023-05-05T23:45:39.295Z,98471.41
2023-05-05T23:48:06.431Z,98461.53
2023-05-05T23:50:33.609Z,98461.53
2023-05-05T23:53:00.470Z,98459.13
2023-05-05T23:55:28.042Z,98470.69
2023-05-05T23:57:54.935Z,98475.78
